sensor_id;sensor_type;location;lat;lon;timestamp;temperature;humidity
11961;DHT22;6040;49.358;11.140;2023-02-28T00:00:28;-2.40;99.90
11961;DHT22;6040;49.358;11.140;2023-02-28T00:02:55;-2.60;99.90
11961;DHT22;6040;49.358;11.140;2023-02-28T00:05:23;-2.60;99.90
11961;DHT22;6040;49.358;11.140;2023-02-28T00:07:51;-2.60;99.90
11961;DHT22;6040;49.358;11.140;2023-02-28T00:10:20;-2.60;99.90
11961;DHT22;6040;49.358;11.140;2023-02-28T00:12:48;-2.50;99.90
11961;DHT22;6040;49.358;11.140;2023-02-28T00:15:16;-2.60;99.90
11961;DHT22;6040;49.358;11.140;2023-02-28T00:17:43;-2.60;99.90
11961;DHT22;6040;49.358;11.140;2023-02-28T00:20:11;-2.60;99.90
11961;DHT22;6040;49.358;11.140;2023-02-28T00:22:41;-2.60;99.90
11961;DHT22;6040;49.358;11.140;2023-02-28T00:25:09;-2.60;99.90
11961;DHT22;6040;49.358;11.140;2023-02-28T00:27:39;-2.60;99.90
11961;DHT22;6040;49.358;11.140;2023-02-28T00:30:10;-2.50;99.90
11961;DHT22;6040;49.358;11.140;2023-02-28T00:32:37;-2.50;99.90
11961;DHT22;6040;49.358;11.140;2023-02-28T00:35:05;-2.60;99.90
11961;DHT22;6040;49.358;11.140;2023-02-28T00:37:32;-2.60;99.90
11961;DHT22;6040;49.358;11.140;2023-02-28T00:39:59;-2.60;99.90
11961;DHT22;6040;49.358;11.140;2023-02-28T00:42:26;-2.60;99.90
11961;DHT22;6040;49.358;11.140;2023-02-28T00:44:54;-2.60;99.90
11961;DHT22;6040;49.358;11.140;2023-02-28T00:47:21;-2.60;99.90
11961;DHT22;6040;49.358;11.140;2023-02-28T00:49:48;-2.60;99.90
11961;DHT22;6040;49.358;11.140;2023-02-28T00:52:15;-2.60;99.90
11961;DHT22;6040;49.358;11.140;2023-02-28T00:54:42;-2.50;99.90
11961;DHT22;6040;49.358;11.140;2023-02-28T00:57:11;-2.50;99.90
11961;DHT22;6040;49.358;11.140;2023-02-28T00:59:38;-2.60;99.90
11961;DHT22;6040;49.358;11.140;2023-02-28T01:02:06;-2.60;99.90
11961;DHT22;6040;49.358;11.140;2023-02-28T01:04:34;-2.60;99.90
11961;DHT22;6040;49.358;11.140;2023-02-28T01:07:01;-0.30;99.90
11961;DHT22;6040;49.358;11.140;2023-02-28T01:09:30;-2.60;99.90
11961;DHT22;6040;49.358;11.140;2023-02-28T01:11:56;-2.60;99.90
11961;DHT22;6040;49.358;11.140;2023-02-28T01:14:23;-2.60;99.90
11961;DHT22;6040;49.358;11.140;2023-02-28T01:16:50;-2.60;99.90
11961;DHT22;6040;49.358;11.140;2023-02-28T01:19:18;-2.60;99.90
11961;DHT22;6040;49.358;11.140;2023-02-28T01:21:45;-2.70;99.90
11961;DHT22;6040;49.358;11.140;2023-02-28T01:24:12;-2.70;99.90
11961;DHT22;6040;49.358;11.140;2023-02-28T01:26:39;-2.70;99.90
11961;DHT22;6040;49.358;11.140;2023-02-28T01:29:06;-2.70;99.90
11961;DHT22;6040;49.358;11.140;2023-02-28T01:31:33;-2.70;99.90
11961;DHT22;6040;49.358;11.140;2023-02-28T01:33:59;-2.70;99.90
11961;DHT22;6040;49.358;11.140;2023-02-28T01:36:28;-2.70;99.90
11961;DHT22;6040;49.358;11.140;2023-02-28T01:38:55;-2.80;99.90
11961;DHT22;6040;49.358;11.140;2023-02-28T01:41:23;-2.70;99.90
11961;DHT22;6040;49.358;11.140;2023-02-28T01:43:57;-2.80;99.90
11961;DHT22;6040;49.358;11.140;2023-02-28T01:46:24;-2.70;99.90
11961;DHT22;6040;49.358;11.140;2023-02-28T01:48:56;-2.80;99.90
11961;DHT22;6040;49.358;11.140;2023-02-28T01:51:29;-2.80;99.90
11961;DHT22;6040;49.358;11.140;2023-02-28T01:54:00;-2.80;99.90
11961;DHT22;6040;49.358;11.140;2023-02-28T01:56:30;-2.80;99.90
11961;DHT22;6040;49.358;11.140;2023-02-28T01:58:57;-2.80;99.90
11961;DHT22;6040;49.358;11.140;2023-02-28T02:01:27;-2.80;99.90
11961;DHT22;6040;49.358;11.140;2023-02-28T02:03:56;-2.80;99.90
11961;DHT22;6040;49.358;11.140;2023-02-28T02:06:25;-2.80;99.90
11961;DHT22;6040;49.358;11.140;2023-02-28T02:08:55;-2.80;99.90
11961;DHT22;6040;49.358;11.140;2023-02-28T02:11:24;-2.90;99.90
11961;DHT22;6040;49.358;11.140;2023-02-28T02:16:59;-2.90;99.90
11961;DHT22;6040;49.358;11.140;2023-02-28T02:19:50;-4.50;99.90
11961;DHT22;6040;49.358;11.140;2023-02-28T02:22:38;-2.90;99.90
11961;DHT22;6040;49.358;11.140;2023-02-28T02:25:26;-2.90;99.90
11961;DHT22;6040;49.358;11.140;2023-02-28T02:28:18;-2.90;99.90
11961;DHT22;6040;49.358;11.140;2023-02-28T02:31:15;-1.60;99.90
11961;DHT22;6040;49.358;11.140;2023-02-28T02:34:32;-2.90;99.90
11961;DHT22;6040;49.358;11.140;2023-02-28T02:37:28;-2.90;99.90
11961;DHT22;6040;49.358;11.140;2023-02-28T02:40:01;-3.00;99.90
11961;DHT22;6040;49.358;11.140;2023-02-28T02:42:36;-2.90;99.90
11961;DHT22;6040;49.358;11.140;2023-02-28T02:45:09;-2.80;99.90
11961;DHT22;6040;49.358;11.140;2023-02-28T02:47:38;-2.80;99.90
11961;DHT22;6040;49.358;11.140;2023-02-28T02:50:11;-2.90;99.90
11961;DHT22;6040;49.358;11.140;2023-02-28T02:52:44;-2.90;99.90
11961;DHT22;6040;49.358;11.140;2023-02-28T02:55:12;-2.90;99.90
11961;DHT22;6040;49.358;11.140;2023-02-28T02:57:45;-3.00;99.90
11961;DHT22;6040;49.358;11.140;2023-02-28T03:00:16;-3.00;99.90
11961;DHT22;6040;49.358;11.140;2023-02-28T03:02:45;-3.00;99.90
11961;DHT22;6040;49.358;11.140;2023-02-28T03:05:19;-3.00;99.90
11961;DHT22;6040;49.358;11.140;2023-02-28T03:07:46;-3.00;99.90
11961;DHT22;6040;49.358;11.140;2023-02-28T03:10:31;-3.00;99.90
11961;DHT22;6040;49.358;11.140;2023-02-28T03:13:08;-2.90;99.90
11961;DHT22;6040;49.358;11.140;2023-02-28T03:15:50;-2.90;99.90
11961;DHT22;6040;49.358;11.140;2023-02-28T03:18:25;-2.90;99.90
11961;DHT22;6040;49.358;11.140;2023-02-28T03:21:02;-1.10;99.90
11961;DHT22;6040;49.358;11.140;2023-02-28T03:23:37;-3.00;99.90
11961;DHT22;6040;49.358;11.140;2023-02-28T03:26:11;-3.00;99.90
11961;DHT22;6040;49.358;11.140;2023-02-28T03:28:41;-3.10;99.90
11961;DHT22;6040;49.358;11.140;2023-02-28T03:31:16;-3.10;99.90
11961;DHT22;6040;49.358;11.140;2023-02-28T03:33:48;-3.10;99.90
11961;DHT22;6040;49.358;11.140;2023-02-28T03:36:24;-3.10;99.90
11961;DHT22;6040;49.358;11.140;2023-02-28T03:38:55;-3.10;99.90
11961;DHT22;6040;49.358;11.140;2023-02-28T03:41:27;-3.10;99.90
11961;DHT22;6040;49.358;11.140;2023-02-28T03:43:59;-3.10;99.90
11961;DHT22;6040;49.358;11.140;2023-02-28T03:46:30;-3.10;99.90
11961;DHT22;6040;49.358;11.140;2023-02-28T03:49:02;-3.20;99.90
11961;DHT22;6040;49.358;11.140;2023-02-28T03:51:34;-3.20;99.90
11961;DHT22;6040;49.358;11.140;2023-02-28T03:54:04;-3.20;99.90
11961;DHT22;6040;49.358;11.140;2023-02-28T03:56:36;-3.20;99.90
11961;DHT22;6040;49.358;11.140;2023-02-28T03:59:07;-3.20;99.90
11961;DHT22;6040;49.358;11.140;2023-02-28T04:01:38;-3.20;99.90
11961;DHT22;6040;49.358;11.140;2023-02-28T04:04:07;-3.30;99.90
11961;DHT22;6040;49.358;11.140;2023-02-28T04:06:35;-3.30;99.90
11961;DHT22;6040;49.358;11.140;2023-02-28T04:09:03;-3.20;99.90
11961;DHT22;6040;49.358;11.140;2023-02-28T04:11:34;-3.10;99.90
11961;DHT22;6040;49.358;11.140;2023-02-28T04:14:01;-3.20;99.90
11961;DHT22;6040;49.358;11.140;2023-02-28T04:16:29;-3.20;99.90
11961;DHT22;6040;49.358;11.140;2023-02-28T04:18:55;-3.20;99.90
11961;DHT22;6040;49.358;11.140;2023-02-28T04:21:27;-3.20;99.90
11961;DHT22;6040;49.358;11.140;2023-02-28T04:23:56;-3.20;99.90
11961;DHT22;6040;49.358;11.140;2023-02-28T04:26:27;-3.20;99.90
11961;DHT22;6040;49.358;11.140;2023-02-28T04:28:55;-3.30;99.90
11961;DHT22;6040;49.358;11.140;2023-02-28T04:31:22;-3.20;99.90
11961;DHT22;6040;49.358;11.140;2023-02-28T04:33:48;-3.30;99.90
11961;DHT22;6040;49.358;11.140;2023-02-28T04:36:15;-2.50;99.90
11961;DHT22;6040;49.358;11.140;2023-02-28T04:38:43;-3.30;99.90
11961;DHT22;6040;49.358;11.140;2023-02-28T04:41:12;-3.20;99.90
11961;DHT22;6040;49.358;11.140;2023-02-28T04:43:39;-3.20;99.90
11961;DHT22;6040;49.358;11.140;2023-02-28T04:46:06;-3.20;99.90
11961;DHT22;6040;49.358;11.140;2023-02-28T04:48:36;-3.30;99.90
11961;DHT22;6040;49.358;11.140;2023-02-28T04:51:05;-3.30;99.90
11961;DHT22;6040;49.358;11.140;2023-02-28T04:53:33;-3.20;99.90
11961;DHT22;6040;49.358;11.140;2023-02-28T04:56:00;-3.20;99.90
11961;DHT22;6040;49.358;11.140;2023-02-28T04:58:28;-3.30;99.90
11961;DHT22;6040;49.358;11.140;2023-02-28T05:01:02;-3.30;99.90
11961;DHT22;6040;49.358;11.140;2023-02-28T05:03:29;-3.30;99.90
11961;DHT22;6040;49.358;11.140;2023-02-28T05:05:56;-3.20;99.90
11961;DHT22;6040;49.358;11.140;2023-02-28T05:08:23;-3.20;99.90
11961;DHT22;6040;49.358;11.140;2023-02-28T05:10:50;-3.20;99.90
11961;DHT22;6040;49.358;11.140;2023-02-28T05:13:17;-3.30;99.90
11961;DHT22;6040;49.358;11.140;2023-02-28T05:15:45;-3.30;99.90
11961;DHT22;6040;49.358;11.140;2023-02-28T05:18:12;-3.30;99.90
11961;DHT22;6040;49.358;11.140;2023-02-28T05:20:39;-3.30;99.90
11961;DHT22;6040;49.358;11.140;2023-02-28T05:23:06;-3.30;99.90
11961;DHT22;6040;49.358;11.140;2023-02-28T05:25:32;-3.30;99.90
11961;DHT22;6040;49.358;11.140;2023-02-28T05:28:00;-3.40;99.90
11961;DHT22;6040;49.358;11.140;2023-02-28T05:30:26;-3.30;99.90
11961;DHT22;6040;49.358;11.140;2023-02-28T05:32:55;-1.50;99.90
11961;DHT22;6040;49.358;11.140;2023-02-28T05:35:21;-3.30;99.90
11961;DHT22;6040;49.358;11.140;2023-02-28T05:37:48;-3.30;99.90
11961;DHT22;6040;49.358;11.140;2023-02-28T05:40:15;-3.30;99.90
11961;DHT22;6040;49.358;11.140;2023-02-28T05:42:43;-3.30;99.90
11961;DHT22;6040;49.358;11.140;2023-02-28T05:45:10;-3.30;99.90
11961;DHT22;6040;49.358;11.140;2023-02-28T05:47:37;-3.30;99.90
11961;DHT22;6040;49.358;11.140;2023-02-28T05:50:06;-3.40;99.90
11961;DHT22;6040;49.358;11.140;2023-02-28T05:52:34;-3.30;99.90
11961;DHT22;6040;49.358;11.140;2023-02-28T05:55:01;-3.30;99.90
11961;DHT22;6040;49.358;11.140;2023-02-28T05:57:28;-3.30;99.90
11961;DHT22;6040;49.358;11.140;2023-02-28T05:59:55;-3.30;99.90
11961;DHT22;6040;49.358;11.140;2023-02-28T06:02:22;-3.30;99.90
11961;DHT22;6040;49.358;11.140;2023-02-28T06:04:49;-3.30;99.90
11961;DHT22;6040;49.358;11.140;2023-02-28T06:07:17;-3.30;99.90
11961;DHT22;6040;49.358;11.140;2023-02-28T06:09:44;-3.20;99.90
11961;DHT22;6040;49.358;11.140;2023-02-28T06:12:11;-3.20;99.90
11961;DHT22;6040;49.358;11.140;2023-02-28T06:14:37;-3.20;99.90
11961;DHT22;6040;49.358;11.140;2023-02-28T06:17:04;-3.20;99.90
11961;DHT22;6040;49.358;11.140;2023-02-28T06:19:34;-3.20;99.90
11961;DHT22;6040;49.358;11.140;2023-02-28T06:22:04;-3.20;99.90
11961;DHT22;6040;49.358;11.140;2023-02-28T06:24:32;-3.10;99.90
11961;DHT22;6040;49.358;11.140;2023-02-28T06:26:59;-3.10;99.90
11961;DHT22;6040;49.358;11.140;2023-02-28T06:29:30;-3.10;99.90
11961;DHT22;6040;49.358;11.140;2023-02-28T06:31:57;-2.90;99.90
11961;DHT22;6040;49.358;11.140;2023-02-28T06:34:24;-2.50;99.90
11961;DHT22;6040;49.358;11.140;2023-02-28T06:36:51;-1.60;99.90
11961;DHT22;6040;49.358;11.140;2023-02-28T06:39:18;-0.60;99.90
11961;DHT22;6040;49.358;11.140;2023-02-28T06:41:47;0.40;99.90
11961;DHT22;6040;49.358;11.140;2023-02-28T06:44:16;1.40;99.90
11961;DHT22;6040;49.358;11.140;2023-02-28T06:46:44;2.60;99.90
11961;DHT22;6040;49.358;11.140;2023-02-28T06:49:11;3.40;99.90
11961;DHT22;6040;49.358;11.140;2023-02-28T06:51:41;5.40;99.60
11961;DHT22;6040;49.358;11.140;2023-02-28T06:54:11;4.80;98.30
11961;DHT22;6040;49.358;11.140;2023-02-28T06:56:39;5.40;97.30
11961;DHT22;6040;49.358;11.140;2023-02-28T06:59:07;6.00;95.70
11961;DHT22;6040;49.358;11.140;2023-02-28T07:01:34;6.30;95.00
11961;DHT22;6040;49.358;11.140;2023-02-28T07:04:02;7.40;94.80
11961;DHT22;6040;49.358;11.140;2023-02-28T07:06:29;7.20;94.00
11961;DHT22;6040;49.358;11.140;2023-02-28T07:08:56;7.60;92.00
11961;DHT22;6040;49.358;11.140;2023-02-28T07:11:25;6.70;92.20
11961;DHT22;6040;49.358;11.140;2023-02-28T07:13:52;7.30;93.70
11961;DHT22;6040;49.358;11.140;2023-02-28T07:16:22;8.50;93.00
11961;DHT22;6040;49.358;11.140;2023-02-28T07:18:49;9.40;91.50
11961;DHT22;6040;49.358;11.140;2023-02-28T07:21:18;9.50;90.20
11961;DHT22;6040;49.358;11.140;2023-02-28T07:23:45;9.70;89.30
11961;DHT22;6040;49.358;11.140;2023-02-28T07:26:14;9.10;84.30
11961;DHT22;6040;49.358;11.140;2023-02-28T07:28:43;7.90;90.40
11961;DHT22;6040;49.358;11.140;2023-02-28T07:31:11;9.00;91.50
11961;DHT22;6040;49.358;11.140;2023-02-28T07:33:41;9.40;88.30
11961;DHT22;6040;49.358;11.140;2023-02-28T07:36:10;10.60;87.10
11961;DHT22;6040;49.358;11.140;2023-02-28T07:38:41;8.90;87.00
11961;DHT22;6040;49.358;11.140;2023-02-28T07:41:09;9.10;87.60
11961;DHT22;6040;49.358;11.140;2023-02-28T07:43:36;8.50;87.30
11961;DHT22;6040;49.358;11.140;2023-02-28T07:46:04;8.00;90.10
11961;DHT22;6040;49.358;11.140;2023-02-28T07:48:31;7.50;90.00
11961;DHT22;6040;49.358;11.140;2023-02-28T07:51:00;8.90;90.00
11961;DHT22;6040;49.358;11.140;2023-02-28T07:53:27;8.00;91.40
11961;DHT22;6040;49.358;11.140;2023-02-28T07:55:55;7.20;90.50
11961;DHT22;6040;49.358;11.140;2023-02-28T07:58:22;7.70;90.90
11961;DHT22;6040;49.358;11.140;2023-02-28T08:00:49;7.70;91.50
11961;DHT22;6040;49.358;11.140;2023-02-28T08:03:17;7.10;90.20
11961;DHT22;6040;49.358;11.140;2023-02-28T08:05:44;6.30;91.20
11961;DHT22;6040;49.358;11.140;2023-02-28T08:08:12;5.20;92.40
11961;DHT22;6040;49.358;11.140;2023-02-28T08:10:39;5.20;93.10
11961;DHT22;6040;49.358;11.140;2023-02-28T08:13:07;4.80;93.40
11961;DHT22;6040;49.358;11.140;2023-02-28T08:15:33;4.40;94.40
11961;DHT22;6040;49.358;11.140;2023-02-28T08:18:01;4.20;94.90
11961;DHT22;6040;49.358;11.140;2023-02-28T08:20:28;3.50;95.90
11961;DHT22;6040;49.358;11.140;2023-02-28T08:22:55;3.40;96.80
11961;DHT22;6040;49.358;11.140;2023-02-28T08:25:23;4.10;97.10
11961;DHT22;6040;49.358;11.140;2023-02-28T08:27:51;4.10;96.30
11961;DHT22;6040;49.358;11.140;2023-02-28T08:30:18;4.90;97.30
11961;DHT22;6040;49.358;11.140;2023-02-28T08:32:45;6.60;95.30
11961;DHT22;6040;49.358;11.140;2023-02-28T08:35:12;5.30;94.20
11961;DHT22;6040;49.358;11.140;2023-02-28T08:37:39;4.80;94.40
11961;DHT22;6040;49.358;11.140;2023-02-28T08:40:07;5.30;96.40
11961;DHT22;6040;49.358;11.140;2023-02-28T08:42:35;5.00;94.00
11961;DHT22;6040;49.358;11.140;2023-02-28T08:45:02;3.90;95.00
11961;DHT22;6040;49.358;11.140;2023-02-28T08:47:29;3.40;96.30
11961;DHT22;6040;49.358;11.140;2023-02-28T08:49:56;3.70;96.90
11961;DHT22;6040;49.358;11.140;2023-02-28T08:52:23;3.70;96.30
11961;DHT22;6040;49.358;11.140;2023-02-28T08:54:50;4.40;96.70
11961;DHT22;6040;49.358;11.140;2023-02-28T08:57:17;6.10;95.60
11961;DHT22;6040;49.358;11.140;2023-02-28T08:59:45;4.50;95.80
11961;DHT22;6040;49.358;11.140;2023-02-28T09:02:13;4.30;94.90
11961;DHT22;6040;49.358;11.140;2023-02-28T09:04:40;5.40;95.80
11961;DHT22;6040;49.358;11.140;2023-02-28T09:07:06;3.90;95.70
11961;DHT22;6040;49.358;11.140;2023-02-28T09:09:33;3.90;96.20
11961;DHT22;6040;49.358;11.140;2023-02-28T09:12:00;4.20;96.10
11961;DHT22;6040;49.358;11.140;2023-02-28T09:14:27;4.50;95.00
11961;DHT22;6040;49.358;11.140;2023-02-28T09:16:55;4.40;95.60
11961;DHT22;6040;49.358;11.140;2023-02-28T09:19:22;4.30;95.10
11961;DHT22;6040;49.358;11.140;2023-02-28T09:21:49;4.30;95.50
11961;DHT22;6040;49.358;11.140;2023-02-28T09:24:16;5.30;95.60
11961;DHT22;6040;49.358;11.140;2023-02-28T09:26:43;4.80;94.90
11961;DHT22;6040;49.358;11.140;2023-02-28T09:29:10;6.90;95.20
11961;DHT22;6040;49.358;11.140;2023-02-28T09:31:37;5.00;94.40
11961;DHT22;6040;49.358;11.140;2023-02-28T09:34:05;5.40;95.40
11961;DHT22;6040;49.358;11.140;2023-02-28T09:36:32;6.60;95.00
11961;DHT22;6040;49.358;11.140;2023-02-28T09:39:00;7.60;94.50
11961;DHT22;6040;49.358;11.140;2023-02-28T09:41:32;7.30;93.10
11961;DHT22;6040;49.358;11.140;2023-02-28T09:44:05;7.40;92.40
11961;DHT22;6040;49.358;11.140;2023-02-28T09:46:39;7.40;92.70
11961;DHT22;6040;49.358;11.140;2023-02-28T09:49:12;7.40;92.50
11961;DHT22;6040;49.358;11.140;2023-02-28T09:51:47;7.60;90.50
11961;DHT22;6040;49.358;11.140;2023-02-28T09:54:17;6.90;91.10
11961;DHT22;6040;49.358;11.140;2023-02-28T09:56:49;6.70;91.90
11961;DHT22;6040;49.358;11.140;2023-02-28T09:59:29;6.70;91.10
11961;DHT22;6040;49.358;11.140;2023-02-28T10:02:02;6.30;90.90
11961;DHT22;6040;49.358;11.140;2023-02-28T10:04:41;6.30;92.20
11961;DHT22;6040;49.358;11.140;2023-02-28T10:07:18;6.50;90.80
11961;DHT22;6040;49.358;11.140;2023-02-28T10:09:52;7.00;90.50
11961;DHT22;6040;49.358;11.140;2023-02-28T10:12:20;6.20;91.10
11961;DHT22;6040;49.358;11.140;2023-02-28T10:14:50;6.40;90.90
11961;DHT22;6040;49.358;11.140;2023-02-28T10:17:20;8.50;92.70
11961;DHT22;6040;49.358;11.140;2023-02-28T10:19:56;7.40;91.40
11961;DHT22;6040;49.358;11.140;2023-02-28T10:22:27;7.60;91.50
11961;DHT22;6040;49.358;11.140;2023-02-28T10:24:57;8.30;90.80
11961;DHT22;6040;49.358;11.140;2023-02-28T10:27:30;8.10;90.10
11961;DHT22;6040;49.358;11.140;2023-02-28T10:29:59;8.10;88.00
11961;DHT22;6040;49.358;11.140;2023-02-28T10:32:29;7.60;86.40
11961;DHT22;6040;49.358;11.140;2023-02-28T10:35:01;7.70;91.10
11961;DHT22;6040;49.358;11.140;2023-02-28T10:37:31;7.90;89.30
11961;DHT22;6040;49.358;11.140;2023-02-28T10:39:58;8.30;88.80
11961;DHT22;6040;49.358;11.140;2023-02-28T10:42:26;8.40;88.80
11961;DHT22;6040;49.358;11.140;2023-02-28T10:45:10;8.30;87.90
11961;DHT22;6040;49.358;11.140;2023-02-28T10:47:48;8.20;90.40
11961;DHT22;6040;49.358;11.140;2023-02-28T10:50:30;9.90;88.40
11961;DHT22;6040;49.358;11.140;2023-02-28T10:53:17;8.60;88.30
11961;DHT22;6040;49.358;11.140;2023-02-28T10:55:57;8.70;86.10
11961;DHT22;6040;49.358;11.140;2023-02-28T10:58:26;8.60;84.40
11961;DHT22;6040;49.358;11.140;2023-02-28T11:00:54;8.40;85.30
11961;DHT22;6040;49.358;11.140;2023-02-28T11:03:29;8.00;83.90
11961;DHT22;6040;49.358;11.140;2023-02-28T11:05:58;7.50;86.70
11961;DHT22;6040;49.358;11.140;2023-02-28T11:08:25;7.50;88.30
11961;DHT22;6040;49.358;11.140;2023-02-28T11:10:57;7.30;88.30
11961;DHT22;6040;49.358;11.140;2023-02-28T11:13:27;7.50;86.20
11961;DHT22;6040;49.358;11.140;2023-02-28T11:15:58;7.30;89.60
11961;DHT22;6040;49.358;11.140;2023-02-28T11:18:29;7.80;90.00
11961;DHT22;6040;49.358;11.140;2023-02-28T11:20:59;8.20;86.80
11961;DHT22;6040;49.358;11.140;2023-02-28T11:23:29;8.30;86.80
11961;DHT22;6040;49.358;11.140;2023-02-28T11:25:59;7.80;84.50
11961;DHT22;6040;49.358;11.140;2023-02-28T11:28:29;8.40;89.30
11961;DHT22;6040;49.358;11.140;2023-02-28T11:31:04;7.80;86.20
11961;DHT22;6040;49.358;11.140;2023-02-28T11:33:32;7.40;87.20
11961;DHT22;6040;49.358;11.140;2023-02-28T11:36:03;7.40;86.50
11961;DHT22;6040;49.358;11.140;2023-02-28T11:38:34;7.90;89.20
11961;DHT22;6040;49.358;11.140;2023-02-28T11:41:14;8.60;87.00
11961;DHT22;6040;49.358;11.140;2023-02-28T11:46:37;8.50;83.50
11961;DHT22;6040;49.358;11.140;2023-02-28T11:49:20;8.00;85.30
11961;DHT22;6040;49.358;11.140;2023-02-28T11:51:54;8.00;85.60
11961;DHT22;6040;49.358;11.140;2023-02-28T11:54:48;8.10;86.20
11961;DHT22;6040;49.358;11.140;2023-02-28T11:57:36;7.60;87.40
11961;DHT22;6040;49.358;11.140;2023-02-28T12:00:18;7.60;85.10
11961;DHT22;6040;49.358;11.140;2023-02-28T12:02:56;7.20;86.40
11961;DHT22;6040;49.358;11.140;2023-02-28T12:05:30;7.00;87.70
11961;DHT22;6040;49.358;11.140;2023-02-28T12:08:10;7.20;87.00
11961;DHT22;6040;49.358;11.140;2023-02-28T12:10:51;6.80;86.20
11961;DHT22;6040;49.358;11.140;2023-02-28T12:13:28;6.80;86.70
11961;DHT22;6040;49.358;11.140;2023-02-28T12:19:00;6.90;87.60
11961;DHT22;6040;49.358;11.140;2023-02-28T12:21:36;7.50;90.00
11961;DHT22;6040;49.358;11.140;2023-02-28T12:24:28;9.50;90.00
11961;DHT22;6040;49.358;11.140;2023-02-28T12:26:59;8.00;85.20
11961;DHT22;6040;49.358;11.140;2023-02-28T12:29:29;7.60;86.80
11961;DHT22;6040;49.358;11.140;2023-02-28T12:32:01;7.80;87.40
11961;DHT22;6040;49.358;11.140;2023-02-28T12:34:34;7.40;85.60
11961;DHT22;6040;49.358;11.140;2023-02-28T12:37:07;7.30;88.10
11961;DHT22;6040;49.358;11.140;2023-02-28T12:39:41;7.80;88.00
11961;DHT22;6040;49.358;11.140;2023-02-28T12:42:13;7.60;84.80
11961;DHT22;6040;49.358;11.140;2023-02-28T12:44:46;7.70;87.50
11961;DHT22;6040;49.358;11.140;2023-02-28T12:47:17;8.10;86.80
11961;DHT22;6040;49.358;11.140;2023-02-28T12:49:48;8.20;86.70
11961;DHT22;6040;49.358;11.140;2023-02-28T12:52:19;8.50;84.90
11961;DHT22;6040;49.358;11.140;2023-02-28T12:54:53;7.80;86.30
11961;DHT22;6040;49.358;11.140;2023-02-28T12:57:27;7.80;86.30
11961;DHT22;6040;49.358;11.140;2023-02-28T13:00:00;9.30;87.30
11961;DHT22;6040;49.358;11.140;2023-02-28T13:02:54;8.20;86.20
11961;DHT22;6040;49.358;11.140;2023-02-28T13:05:38;8.30;84.20
11961;DHT22;6040;49.358;11.140;2023-02-28T13:08:27;8.30;86.40
11961;DHT22;6040;49.358;11.140;2023-02-28T13:11:03;8.40;86.90
11961;DHT22;6040;49.358;11.140;2023-02-28T13:13:30;8.10;85.40
11961;DHT22;6040;49.358;11.140;2023-02-28T13:16:00;8.10;86.50
11961;DHT22;6040;49.358;11.140;2023-02-28T13:18:33;8.20;85.80
11961;DHT22;6040;49.358;11.140;2023-02-28T13:21:03;8.20;87.10
11961;DHT22;6040;49.358;11.140;2023-02-28T13:29:37;7.70;85.60
11961;DHT22;6040;49.358;11.140;2023-02-28T13:35:14;7.40;89.20
11961;DHT22;6040;49.358;11.140;2023-02-28T13:37:47;7.30;89.30
11961;DHT22;6040;49.358;11.140;2023-02-28T13:40:30;7.30;87.70
11961;DHT22;6040;49.358;11.140;2023-02-28T13:43:02;7.40;88.60
11961;DHT22;6040;49.358;11.140;2023-02-28T13:45:30;6.90;88.10
11961;DHT22;6040;49.358;11.140;2023-02-28T13:48:04;6.80;89.30
11961;DHT22;6040;49.358;11.140;2023-02-28T13:50:34;6.80;89.80
11961;DHT22;6040;49.358;11.140;2023-02-28T13:53:30;6.80;90.00
11961;DHT22;6040;49.358;11.140;2023-02-28T13:56:05;6.80;90.00
11961;DHT22;6040;49.358;11.140;2023-02-28T13:58:43;6.70;90.20
11961;DHT22;6040;49.358;11.140;2023-02-28T14:01:26;7.00;90.00
11961;DHT22;6040;49.358;11.140;2023-02-28T14:04:21;6.80;89.30
11961;DHT22;6040;49.358;11.140;2023-02-28T14:06:57;6.40;89.20
11961;DHT22;6040;49.358;11.140;2023-02-28T14:09:27;6.20;90.80
11961;DHT22;6040;49.358;11.140;2023-02-28T14:11:57;6.00;90.70
11961;DHT22;6040;49.358;11.140;2023-02-28T14:14:55;5.90;90.80
11961;DHT22;6040;49.358;11.140;2023-02-28T14:17:25;5.80;90.70
11961;DHT22;6040;49.358;11.140;2023-02-28T14:19:52;5.50;91.50
11961;DHT22;6040;49.358;11.140;2023-02-28T14:22:45;6.00;92.00
11961;DHT22;6040;49.358;11.140;2023-02-28T14:25:23;5.40;91.90
11961;DHT22;6040;49.358;11.140;2023-02-28T14:28:06;5.40;92.10
11961;DHT22;6040;49.358;11.140;2023-02-28T14:30:57;5.50;92.00
11961;DHT22;6040;49.358;11.140;2023-02-28T14:33:35;5.60;91.90
11961;DHT22;6040;49.358;11.140;2023-02-28T14:36:18;5.70;91.80
11961;DHT22;6040;49.358;11.140;2023-02-28T14:38:49;5.50;91.70
11961;DHT22;6040;49.358;11.140;2023-02-28T14:41:24;5.50;92.10
11961;DHT22;6040;49.358;11.140;2023-02-28T14:43:57;5.40;92.60
11961;DHT22;6040;49.358;11.140;2023-02-28T14:46:27;5.40;92.30
11961;DHT22;6040;49.358;11.140;2023-02-28T14:48:56;5.40;92.10
11961;DHT22;6040;49.358;11.140;2023-02-28T14:51:24;5.50;92.40
11961;DHT22;6040;49.358;11.140;2023-02-28T14:53:56;5.40;92.40
11961;DHT22;6040;49.358;11.140;2023-02-28T14:56:27;5.40;91.90
11961;DHT22;6040;49.358;11.140;2023-02-28T14:58:57;5.30;92.20
11961;DHT22;6040;49.358;11.140;2023-02-28T15:01:25;5.10;92.20
11961;DHT22;6040;49.358;11.140;2023-02-28T15:04:02;5.10;92.20
11961;DHT22;6040;49.358;11.140;2023-02-28T15:06:30;5.20;92.50
11961;DHT22;6040;49.358;11.140;2023-02-28T15:09:08;5.20;92.70
11961;DHT22;6040;49.358;11.140;2023-02-28T15:11:35;6.40;93.00
11961;DHT22;6040;49.358;11.140;2023-02-28T15:14:03;5.20;92.60
11961;DHT22;6040;49.358;11.140;2023-02-28T15:16:32;5.10;92.20
11961;DHT22;6040;49.358;11.140;2023-02-28T15:19:05;5.10;92.60
11961;DHT22;6040;49.358;11.140;2023-02-28T15:21:35;5.00;93.00
11961;DHT22;6040;49.358;11.140;2023-02-28T15:24:04;5.00;93.30
11961;DHT22;6040;49.358;11.140;2023-02-28T15:26:34;5.00;92.60
11961;DHT22;6040;49.358;11.140;2023-02-28T15:29:05;4.90;92.30
11961;DHT22;6040;49.358;11.140;2023-02-28T15:31:34;4.80;92.60
11961;DHT22;6040;49.358;11.140;2023-02-28T15:34:05;4.70;93.00
11961;DHT22;6040;49.358;11.140;2023-02-28T15:36:33;6.20;93.30
11961;DHT22;6040;49.358;11.140;2023-02-28T15:39:16;4.60;93.30
11961;DHT22;6040;49.358;11.140;2023-02-28T15:41:44;4.70;93.50
11961;DHT22;6040;49.358;11.140;2023-02-28T15:44:24;5.70;93.50
11961;DHT22;6040;49.358;11.140;2023-02-28T15:46:58;4.60;93.40
11961;DHT22;6040;49.358;11.140;2023-02-28T15:49:31;4.60;93.60
11961;DHT22;6040;49.358;11.140;2023-02-28T15:52:03;4.50;93.60
11961;DHT22;6040;49.358;11.140;2023-02-28T15:54:33;4.50;93.80
11961;DHT22;6040;49.358;11.140;2023-02-28T15:57:04;4.50;93.90
11961;DHT22;6040;49.358;11.140;2023-02-28T15:59:35;4.50;93.80
11961;DHT22;6040;49.358;11.140;2023-02-28T16:02:15;4.60;93.50
11961;DHT22;6040;49.358;11.140;2023-02-28T16:07:58;4.40;93.30
11961;DHT22;6040;49.358;11.140;2023-02-28T16:10:26;4.30;93.70
11961;DHT22;6040;49.358;11.140;2023-02-28T16:12:54;4.20;93.80
11961;DHT22;6040;49.358;11.140;2023-02-28T16:15:24;4.40;94.10
11961;DHT22;6040;49.358;11.140;2023-02-28T16:17:52;3.90;94.00
11961;DHT22;6040;49.358;11.140;2023-02-28T16:20:23;3.90;94.20
11961;DHT22;6040;49.358;11.140;2023-02-28T16:22:51;3.80;94.60
11961;DHT22;6040;49.358;11.140;2023-02-28T16:25:20;3.70;94.50